createdAt,value
2018-07-09T00:00:15.321Z,17.28
2018-07-09T00:02:44.553Z,17.28
2018-07-09T00:05:14.010Z,17.27
2018-07-09T00:07:42.838Z,17.24
2018-07-09T00:10:12.992Z,17.24
2018-07-09T00:12:41.948Z,17.19
2018-07-09T00:15:11.397Z,17.21
2018-07-09T00:17:41.409Z,17.19
2018-07-09T00:20:10.606Z,17.13
2018-07-09T00:22:39.682Z,17.04
2018-07-09T00:25:08.365Z,16.99
2018-07-09T00:27:37.671Z,16.95
2018-07-09T00:30:06.489Z,16.89
2018-07-09T00:32:35.564Z,16.75
2018-07-09T00:35:04.579Z,16.71
2018-07-09T00:37:33.654Z,16.67
2018-07-09T00:40:02.697Z,16.60
2018-07-09T00:42:31.529Z,16.56
2018-07-09T00:45:01.250Z,16.52
2018-07-09T00:47:30.217Z,16.52
2018-07-09T00:49:59.296Z,16.51
2018-07-09T00:52:28.309Z,16.46
2018-07-09T00:54:58.223Z,16.39
2018-07-09T00:57:27.201Z,16.29
2018-07-09T00:59:56.344Z,16.24
2018-07-09T01:02:25.758Z,16.18
2018-07-09T01:04:54.749Z,16.15
2018-07-09T01:07:23.851Z,16.14
2018-07-09T01:09:52.705Z,16.13
2018-07-09T01:12:23.244Z,16.12
2018-07-09T01:14:52.334Z,16.13
2018-07-09T01:17:21.948Z,16.13
2018-07-09T01:19:51.039Z,16.11
2018-07-09T01:22:19.857Z,16.12
2018-07-09T01:24:49.589Z,16.13
2018-07-09T01:27:18.690Z,16.07
2018-07-09T01:29:47.585Z,16.01
2018-07-09T01:32:17.287Z,16.00
2018-07-09T01:34:46.254Z,16.00
2018-07-09T01:37:15.116Z,15.99
2018-07-09T01:39:43.924Z,15.89
2018-07-09T01:42:13.135Z,15.84
2018-07-09T01:44:42.091Z,15.87
2018-07-09T01:47:11.203Z,15.80
2018-07-09T01:49:40.040Z,15.78
2018-07-09T01:52:09.111Z,15.81
2018-07-09T01:54:38.403Z,15.82
2018-07-09T01:57:07.633Z,15.83
2018-07-09T01:59:36.471Z,15.75
2018-07-09T02:02:05.649Z,15.73
2018-07-09T02:04:34.338Z,15.63
2018-07-09T02:07:03.347Z,15.57
2018-07-09T02:09:32.125Z,15.57
2018-07-09T02:12:00.991Z,15.53
2018-07-09T02:14:30.243Z,15.53
2018-07-09T02:16:59.258Z,15.49
2018-07-09T02:19:28.311Z,15.49
2018-07-09T02:21:57.276Z,15.47
2018-07-09T02:24:26.991Z,15.44
2018-07-09T02:26:55.928Z,15.40
2018-07-09T02:29:24.979Z,15.38
2018-07-09T02:31:53.913Z,15.38
2018-07-09T02:34:23.248Z,15.33
2018-07-09T02:36:52.098Z,15.29
2018-07-09T02:39:21.112Z,15.24
2018-07-09T02:41:50.971Z,15.20
2018-07-09T02:44:20.226Z,15.19
2018-07-09T02:46:49.691Z,15.23
2018-07-09T02:49:19.214Z,15.16
2018-07-09T02:51:49.099Z,15.11
2018-07-09T02:54:19.112Z,15.09
2018-07-09T02:56:47.923Z,15.08
2018-07-09T02:59:16.609Z,15.08
2018-07-09T03:01:46.596Z,15.06
2018-07-09T03:04:15.409Z,15.01
2018-07-09T03:06:45.057Z,14.99
2018-07-09T03:09:14.048Z,14.97
2018-07-09T03:11:43.011Z,14.95
2018-07-09T03:14:11.881Z,14.89
2018-07-09T03:16:41.203Z,14.88
2018-07-09T03:19:10.328Z,14.92
2018-07-09T03:21:39.591Z,14.92
2018-07-09T03:24:08.755Z,14.90
2018-07-09T03:26:37.977Z,14.88
2018-07-09T03:29:07.926Z,14.85
2018-07-09T03:31:37.032Z,14.78
2018-07-09T03:34:06.103Z,14.80
2018-07-09T03:36:35.794Z,14.80
2018-07-09T03:39:05.560Z,14.82
2018-07-09T03:41:34.785Z,14.83
2018-07-09T03:44:05.024Z,14.88
2018-07-09T03:46:34.169Z,14.83
2018-07-09T03:49:02.933Z,14.83
2018-07-09T03:51:31.828Z,14.85
2018-07-09T03:54:00.860Z,14.92
2018-07-09T03:56:29.531Z,14.93
2018-07-09T03:59:00.295Z,14.99
2018-07-09T04:01:29.315Z,14.99
2018-07-09T04:03:58.027Z,15.07
2018-07-09T04:06:27.139Z,15.14
2018-07-09T04:08:56.178Z,15.22
2018-07-09T04:11:26.865Z,15.19
2018-07-09T04:13:55.774Z,15.29
2018-07-09T04:16:24.704Z,15.25
2018-07-09T04:18:53.561Z,15.42
2018-07-09T04:21:22.535Z,15.45
2018-07-09T04:23:51.517Z,15.42
2018-07-09T04:26:20.525Z,15.47
2018-07-09T04:28:49.684Z,15.62
2018-07-09T04:31:18.515Z,15.77
2018-07-09T04:33:47.640Z,15.84
2018-07-09T04:36:16.655Z,15.97
2018-07-09T04:38:45.345Z,16.07
2018-07-09T04:41:14.357Z,16.19
2018-07-09T04:43:43.311Z,16.36
2018-07-09T04:46:12.057Z,16.39
2018-07-09T04:48:41.308Z,16.41
2018-07-09T04:51:10.034Z,16.58
2018-07-09T04:53:38.715Z,16.65
2018-07-09T04:56:07.413Z,16.73
2018-07-09T04:58:36.119Z,16.74
2018-07-09T05:01:04.834Z,16.92
2018-07-09T05:03:33.542Z,17.03
2018-07-09T05:06:02.217Z,17.08
2018-07-09T05:08:30.868Z,17.00
2018-07-09T05:10:59.624Z,17.18
2018-07-09T05:13:28.440Z,17.32
2018-07-09T05:15:57.028Z,17.42
2018-07-09T05:18:25.786Z,17.57
2018-07-09T05:20:54.501Z,17.67
2018-07-09T05:23:23.143Z,17.80
2018-07-09T05:25:51.865Z,17.98
2018-07-09T05:28:20.531Z,17.99
2018-07-09T05:30:49.194Z,18.09
2018-07-09T05:33:17.988Z,18.25
2018-07-09T05:35:46.738Z,18.24
2018-07-09T05:38:15.421Z,18.42
2018-07-09T05:40:44.213Z,18.61
2018-07-09T05:43:13.000Z,18.52
2018-07-09T05:45:41.736Z,18.69
2018-07-09T05:48:10.496Z,18.80
2018-07-09T05:50:39.240Z,18.89
2018-07-09T05:53:08.097Z,18.95
2018-07-09T05:55:36.745Z,19.03
2018-07-09T05:58:05.481Z,19.08
2018-07-09T06:00:34.258Z,19.16
2018-07-09T06:03:03.033Z,19.32
2018-07-09T06:05:31.876Z,19.38
2018-07-09T06:08:00.661Z,19.50
2018-07-09T06:10:29.485Z,19.45
2018-07-09T06:12:58.157Z,19.62
2018-07-09T06:15:26.931Z,19.77
2018-07-09T06:17:55.648Z,19.97
2018-07-09T06:20:24.345Z,19.99
2018-07-09T06:22:53.315Z,20.18
2018-07-09T06:25:22.192Z,20.03
2018-07-09T06:27:51.067Z,20.32
2018-07-09T06:30:19.768Z,20.53
2018-07-09T06:32:48.466Z,20.44
2018-07-09T06:35:17.166Z,20.57
2018-07-09T06:37:45.957Z,20.71
2018-07-09T06:40:14.830Z,20.77
2018-07-09T06:42:43.551Z,20.93
2018-07-09T06:45:12.365Z,21.04
2018-07-09T06:47:41.113Z,21.05
2018-07-09T06:50:10.011Z,21.25
2018-07-09T06:52:38.731Z,21.46
2018-07-09T06:55:07.500Z,21.68
2018-07-09T06:57:36.234Z,21.47
2018-07-09T07:00:05.220Z,21.79
2018-07-09T07:02:33.977Z,21.75
2018-07-09T07:05:02.758Z,21.87
2018-07-09T07:07:31.497Z,22.06
2018-07-09T07:10:00.215Z,22.12
2018-07-09T07:12:29.127Z,22.28
2018-07-09T07:14:58.715Z,22.11
2018-07-09T07:17:27.423Z,22.48
2018-07-09T07:19:56.148Z,22.61
2018-07-09T07:22:24.886Z,22.79
2018-07-09T07:24:53.725Z,22.76
2018-07-09T07:27:22.466Z,22.82
2018-07-09T07:29:51.137Z,23.04
2018-07-09T07:32:19.791Z,23.12
2018-07-09T07:34:48.569Z,23.30
2018-07-09T07:37:17.303Z,23.48
2018-07-09T07:39:45.952Z,23.46
2018-07-09T07:42:14.679Z,23.61
2018-07-09T07:44:43.477Z,23.68
2018-07-09T07:47:12.176Z,23.74
2018-07-09T07:49:40.855Z,23.88
2018-07-09T07:52:09.591Z,24.18
2018-07-09T07:54:38.390Z,24.30
2018-07-09T07:57:07.297Z,24.04
2018-07-09T07:59:36.254Z,24.05
2018-07-09T08:02:04.961Z,24.03
2018-07-09T08:04:33.677Z,24.06
2018-07-09T08:07:02.432Z,24.62
2018-07-09T08:09:31.226Z,24.65
2018-07-09T08:12:59.676Z,24.78
2018-07-09T08:14:28.791Z,24.96
2018-07-09T08:16:57.539Z,24.74
2018-07-09T08:19:26.237Z,25.12
2018-07-09T08:21:54.980Z,25.22
2018-07-09T08:24:23.781Z,25.14
2018-07-09T08:26:52.475Z,25.32
2018-07-09T08:29:21.211Z,24.95
2018-07-09T08:31:49.933Z,24.90
2018-07-09T08:34:18.690Z,24.81
2018-07-09T08:36:47.449Z,25.27
2018-07-09T08:39:16.360Z,24.92
2018-07-09T08:41:45.374Z,25.41
2018-07-09T08:44:14.590Z,25.36
2018-07-09T08:46:43.265Z,25.42
2018-07-09T08:49:12.082Z,25.51
2018-07-09T08:51:40.669Z,25.46
2018-07-09T08:54:09.616Z,25.79
2018-07-09T08:56:38.426Z,25.47
2018-07-09T08:59:07.211Z,25.49
2018-07-09T09:01:35.872Z,25.96
2018-07-09T09:04:04.617Z,26.12
2018-07-09T09:06:33.576Z,26.20
2018-07-09T09:09:02.369Z,26.07
2018-07-09T09:11:31.173Z,26.51
2018-07-09T09:13:59.943Z,26.69
2018-07-09T09:16:28.681Z,26.77
2018-07-09T09:18:57.341Z,26.88
2018-07-09T09:21:26.063Z,26.48
2018-07-09T09:23:54.844Z,26.62
2018-07-09T09:26:23.539Z,27.01
2018-07-09T09:28:52.753Z,26.94
2018-07-09T09:31:21.560Z,26.61
2018-07-09T09:33:50.235Z,26.40
2018-07-09T09:36:18.975Z,26.47
2018-07-09T09:38:47.813Z,26.79
2018-07-09T09:41:16.531Z,27.08
2018-07-09T09:43:45.229Z,26.89
2018-07-09T09:46:13.963Z,27.08
2018-07-09T09:48:42.721Z,27.05
2018-07-09T09:51:11.525Z,27.38
2018-07-09T09:53:40.211Z,27.46
2018-07-09T09:56:08.933Z,27.29
2018-07-09T09:58:37.680Z,26.90
2018-07-09T10:01:06.877Z,27.13
2018-07-09T10:03:35.629Z,27.11
2018-07-09T10:06:04.449Z,27.52
2018-07-09T10:08:33.185Z,27.74
2018-07-09T10:11:02.000Z,27.75
2018-07-09T10:13:30.709Z,27.49
2018-07-09T10:15:59.362Z,27.44
2018-07-09T10:18:28.109Z,27.42
2018-07-09T10:20:56.794Z,27.54
2018-07-09T10:23:25.463Z,27.92
2018-07-09T10:25:54.219Z,27.94
2018-07-09T10:28:22.995Z,27.92
2018-07-09T10:30:51.627Z,27.97
2018-07-09T10:33:20.594Z,28.14
2018-07-09T10:35:49.258Z,28.30
2018-07-09T10:38:18.064Z,28.49
2018-07-09T10:40:47.002Z,28.00
2018-07-09T10:43:15.773Z,27.91
2018-07-09T10:45:44.515Z,28.40
2018-07-09T10:48:13.212Z,28.09
2018-07-09T10:50:41.977Z,28.12
2018-07-09T10:53:10.716Z,28.15
2018-07-09T10:55:39.493Z,28.23
2018-07-09T10:58:08.427Z,28.09
2018-07-09T11:00:37.203Z,28.16
2018-07-09T11:03:06.331Z,28.40
2018-07-09T11:05:35.082Z,28.74
2018-07-09T11:08:04.055Z,29.17
2018-07-09T11:10:32.878Z,29.46
2018-07-09T11:13:01.571Z,29.05
2018-07-09T11:15:30.349Z,29.34
2018-07-09T11:17:59.048Z,29.06
2018-07-09T11:20:27.878Z,29.57
2018-07-09T11:22:56.541Z,29.56
2018-07-09T11:25:25.322Z,29.34
2018-07-09T11:27:54.008Z,29.45
2018-07-09T11:30:22.708Z,29.45
2018-07-09T11:32:51.359Z,29.64
2018-07-09T11:35:20.023Z,29.55
2018-07-09T11:37:48.855Z,30.00
2018-07-09T11:40:17.546Z,29.98
2018-07-09T11:42:46.335Z,30.50
2018-07-09T11:45:15.079Z,31.00
2018-07-09T11:47:43.831Z,31.74
2018-07-09T11:50:12.505Z,31.90
2018-07-09T11:52:41.212Z,32.08
2018-07-09T11:55:09.961Z,32.11
2018-07-09T11:57:38.753Z,32.68
2018-07-09T12:00:07.705Z,31.30
2018-07-09T12:02:36.353Z,31.63
2018-07-09T12:05:05.225Z,32.05
2018-07-09T12:07:34.000Z,32.62
2018-07-09T12:10:02.725Z,34.13
2018-07-09T12:12:31.440Z,35.07
2018-07-09T12:15:00.375Z,35.04
2018-07-09T12:17:29.138Z,36.38
2018-07-09T12:19:58.020Z,36.93
2018-07-09T12:22:26.784Z,37.72
2018-07-09T12:24:55.502Z,38.46
2018-07-09T12:27:24.220Z,39.10
2018-07-09T12:29:53.059Z,38.33
2018-07-09T12:32:21.768Z,39.62
2018-07-09T12:34:50.615Z,41.38
2018-07-09T12:37:19.300Z,41.71
2018-07-09T12:39:48.039Z,42.03
2018-07-09T12:42:16.764Z,42.50
2018-07-09T12:44:45.549Z,42.61
2018-07-09T12:47:14.336Z,41.84
2018-07-09T12:49:43.030Z,42.02
2018-07-09T12:52:11.714Z,40.89
2018-07-09T12:54:40.501Z,42.38
2018-07-09T12:57:09.154Z,42.44
2018-07-09T12:59:37.856Z,43.68
2018-07-09T13:02:06.641Z,44.68
2018-07-09T13:04:35.452Z,46.39
2018-07-09T13:07:04.199Z,46.05
2018-07-09T13:09:32.910Z,47.43
2018-07-09T13:12:01.681Z,48.27
2018-07-09T13:14:30.446Z,45.49
2018-07-09T13:16:59.166Z,44.09
2018-07-09T13:19:27.961Z,42.91
2018-07-09T13:21:56.687Z,43.89
2018-07-09T13:24:25.326Z,43.88
2018-07-09T13:26:54.020Z,40.95
2018-07-09T13:29:22.921Z,38.25
2018-07-09T13:31:51.868Z,36.06
2018-07-09T13:34:20.642Z,36.74
2018-07-09T13:36:49.501Z,39.31
2018-07-09T13:39:18.200Z,41.03
2018-07-09T13:41:47.072Z,40.50
2018-07-09T13:44:15.815Z,42.78
2018-07-09T13:46:44.628Z,43.80
2018-07-09T13:49:13.407Z,45.74
2018-07-09T13:51:42.294Z,46.14
2018-07-09T13:54:11.055Z,45.69
2018-07-09T13:56:40.127Z,42.95
2018-07-09T13:59:08.846Z,43.86
2018-07-09T14:01:37.601Z,40.69
2018-07-09T14:04:06.419Z,42.22
2018-07-09T14:06:35.258Z,42.83
2018-07-09T14:09:04.808Z,45.03
2018-07-09T14:11:33.589Z,49.15
2018-07-09T14:14:02.262Z,51.10
2018-07-09T14:16:30.907Z,53.27
2018-07-09T14:18:59.490Z,51.53
2018-07-09T14:21:28.187Z,45.44
2018-07-09T14:23:56.943Z,41.69
2018-07-09T14:26:25.734Z,38.07
2018-07-09T14:28:54.585Z,37.49
2018-07-09T14:31:23.206Z,36.38
2018-07-09T14:33:52.100Z,35.50
2018-07-09T14:36:20.784Z,37.82
2018-07-09T14:38:49.520Z,36.12
2018-07-09T14:41:18.350Z,39.58
2018-07-09T14:43:47.101Z,38.61
2018-07-09T14:46:15.753Z,36.96
2018-07-09T14:48:44.519Z,40.35
2018-07-09T14:51:13.222Z,38.68
2018-07-09T14:53:41.826Z,44.66
2018-07-09T14:56:10.533Z,49.54
2018-07-09T14:58:40.305Z,51.07
2018-07-09T15:01:08.958Z,51.45
2018-07-09T15:03:37.675Z,51.31
2018-07-09T15:06:06.809Z,51.72
2018-07-09T15:08:35.717Z,48.89
2018-07-09T15:11:04.998Z,52.41
2018-07-09T15:13:33.877Z,49.58
2018-07-09T15:16:02.946Z,52.68
2018-07-09T15:18:31.992Z,52.25
2018-07-09T15:21:01.785Z,55.38
2018-07-09T15:23:30.678Z,49.80
2018-07-09T15:25:59.988Z,52.52
2018-07-09T15:28:28.913Z,51.44
2018-07-09T15:30:58.501Z,50.36
2018-07-09T15:33:27.352Z,49.19
2018-07-09T15:35:56.337Z,48.31
2018-07-09T15:38:25.460Z,49.27
2018-07-09T15:40:54.887Z,47.11
2018-07-09T15:43:37.617Z,43.31
2018-07-09T15:46:07.446Z,43.21
2018-07-09T15:48:36.520Z,40.90
2018-07-09T15:51:05.817Z,39.06
2018-07-09T15:53:35.035Z,39.03
2018-07-09T15:56:04.093Z,41.19
2018-07-09T15:58:33.419Z,46.47
2018-07-09T16:01:02.927Z,41.15
2018-07-09T16:03:32.343Z,41.98
2018-07-09T16:06:01.641Z,41.02
2018-07-09T16:08:30.686Z,38.31
2018-07-09T16:11:00.442Z,36.71
2018-07-09T16:13:29.853Z,40.10
2018-07-09T16:15:59.610Z,41.15
2018-07-09T16:18:28.750Z,41.95
2018-07-09T16:20:58.342Z,45.73
2018-07-09T16:23:27.720Z,47.96
2018-07-09T16:25:57.292Z,48.83
2018-07-09T16:28:27.152Z,49.29
2018-07-09T16:30:56.895Z,49.06
2018-07-09T16:33:26.805Z,51.37
2018-07-09T16:35:56.349Z,50.03
2018-07-09T16:38:26.846Z,49.99
2018-07-09T16:40:56.217Z,50.40
2018-07-09T16:43:25.471Z,51.38
2018-07-09T16:45:55.016Z,48.23
2018-07-09T16:48:24.466Z,49.60
2018-07-09T16:50:54.485Z,50.80
2018-07-09T16:53:24.421Z,48.73
2018-07-09T16:55:53.830Z,48.14
2018-07-09T16:58:23.039Z,48.12
2018-07-09T17:00:52.180Z,47.22
2018-07-09T17:03:21.571Z,47.69
2018-07-09T17:05:51.243Z,47.67
2018-07-09T17:08:20.565Z,46.58
2018-07-09T17:10:49.860Z,44.90
2018-07-09T17:13:19.193Z,43.19
2018-07-09T17:15:48.887Z,40.06
2018-07-09T17:18:18.099Z,37.13
2018-07-09T17:20:48.399Z,35.47
2018-07-09T17:23:17.888Z,33.70
2018-07-09T17:25:48.729Z,33.68
2018-07-09T17:28:18.131Z,32.16
2018-07-09T17:30:47.258Z,31.39
2018-07-09T17:33:17.108Z,32.36
2018-07-09T17:35:46.332Z,34.50
2018-07-09T17:38:15.908Z,36.39
2018-07-09T17:40:45.221Z,36.89
2018-07-09T17:43:14.437Z,35.71
2018-07-09T17:45:44.395Z,35.36
2018-07-09T17:48:13.867Z,35.68
2018-07-09T17:50:44.172Z,36.36
2018-07-09T17:53:13.568Z,36.49
2018-07-09T17:55:42.833Z,34.88
2018-07-09T17:58:11.933Z,34.94
2018-07-09T18:00:40.941Z,34.19
2018-07-09T18:03:10.022Z,33.21
2018-07-09T18:05:39.052Z,31.64
2018-07-09T18:08:08.304Z,30.75
2018-07-09T18:10:37.640Z,29.33
2018-07-09T18:13:06.819Z,29.10
2018-07-09T18:15:35.997Z,28.86
2018-07-09T18:18:05.125Z,28.83
2018-07-09T18:20:34.354Z,28.81
2018-07-09T18:23:03.382Z,28.68
2018-07-09T18:25:32.684Z,28.57
2018-07-09T18:28:01.726Z,28.28
2018-07-09T18:30:31.320Z,28.02
2018-07-09T18:33:00.416Z,27.84
2018-07-09T18:35:29.843Z,27.69
2018-07-09T18:38:04.961Z,27.54
2018-07-09T18:40:34.225Z,27.24
2018-07-09T18:43:03.014Z,27.15
2018-07-09T18:45:31.755Z,26.92
2018-07-09T18:48:00.338Z,26.85
2018-07-09T18:50:29.033Z,26.55
2018-07-09T18:52:57.817Z,26.42
2018-07-09T18:55:28.193Z,26.11
2018-07-09T18:57:57.098Z,25.96
2018-07-09T19:00:25.754Z,25.80
2018-07-09T19:02:54.581Z,25.63
2018-07-09T19:05:36.885Z,25.45
2018-07-09T19:08:06.582Z,25.24
2018-07-09T19:10:35.825Z,25.05
2018-07-09T19:13:04.769Z,24.75
2018-07-09T19:15:34.126Z,24.55
2018-07-09T19:18:17.423Z,24.35
2018-07-09T19:21:32.008Z,24.25
2018-07-09T19:23:59.919Z,24.02
2018-07-09T19:26:27.300Z,23.86
2018-07-09T19:28:54.755Z,23.66
2018-07-09T19:31:22.132Z,23.48
2018-07-09T19:33:49.611Z,23.37
2018-07-09T19:36:17.072Z,23.27
2018-07-09T19:38:45.066Z,23.20
2018-07-09T19:41:12.710Z,23.06
2018-07-09T19:43:40.270Z,22.95
2018-07-09T19:46:07.709Z,22.79
2018-07-09T19:48:35.098Z,22.65
2018-07-09T19:51:02.541Z,22.52
2018-07-09T19:53:33.275Z,22.33
2018-07-09T19:56:00.691Z,22.22
2018-07-09T19:58:33.205Z,22.10
2018-07-09T20:01:02.232Z,21.93
2018-07-09T20:03:29.634Z,21.85
2018-07-09T20:05:57.004Z,21.76
2018-07-09T20:08:28.510Z,21.69
2018-07-09T20:11:04.242Z,21.71
2018-07-09T20:14:35.977Z,21.62
2018-07-09T20:17:11.230Z,21.53
2018-07-09T20:19:38.619Z,21.47
2018-07-09T20:22:05.933Z,21.42
2018-07-09T20:24:35.679Z,21.38
2018-07-09T20:27:03.006Z,21.33
2018-07-09T20:29:30.383Z,21.29
2018-07-09T20:31:57.933Z,21.32
2018-07-09T20:34:25.399Z,21.26
2018-07-09T20:36:52.793Z,21.37
2018-07-09T20:39:20.124Z,21.38
2018-07-09T20:41:47.597Z,21.38
2018-07-09T20:44:15.041Z,21.38
2018-07-09T20:46:42.440Z,21.42
2018-07-09T20:49:09.801Z,21.42
2018-07-09T20:51:39.178Z,21.43
2018-07-09T20:54:07.444Z,21.45
2018-07-09T20:56:35.116Z,21.34
2018-07-09T20:59:02.544Z,21.31
2018-07-09T21:01:30.703Z,21.27
2018-07-09T21:04:03.267Z,21.19
2018-07-09T21:06:30.796Z,21.09
2018-07-09T21:08:58.327Z,21.03
2018-07-09T21:11:27.163Z,20.92
2018-07-09T21:13:54.633Z,20.87
2018-07-09T21:16:22.928Z,20.80
2018-07-09T21:18:50.266Z,20.78
2018-07-09T21:21:25.010Z,20.95
2018-07-09T21:23:52.929Z,21.03
2018-07-09T21:26:20.395Z,21.12
2018-07-09T21:28:47.812Z,21.13
2018-07-09T21:31:15.336Z,21.17
2018-07-09T21:33:43.124Z,21.14
2018-07-09T21:36:10.751Z,21.13
2018-07-09T21:38:38.505Z,21.17
2018-07-09T21:41:06.310Z,21.13
2018-07-09T21:43:33.688Z,21.09
2018-07-09T21:46:01.215Z,21.01
2018-07-09T21:48:29.781Z,20.95
2018-07-09T21:50:57.650Z,20.92
2018-07-09T21:53:26.705Z,20.89
2018-07-09T21:55:54.506Z,20.87
2018-07-09T21:58:22.469Z,20.84
2018-07-09T22:00:49.915Z,20.85
2018-07-09T22:03:17.431Z,20.83
2018-07-09T22:05:45.055Z,20.75
2018-07-09T22:08:12.437Z,20.71
2018-07-09T22:10:39.978Z,20.64
2018-07-09T22:13:07.309Z,20.58
2018-07-09T22:15:34.676Z,20.51
2018-07-09T22:18:02.877Z,20.42
2018-07-09T22:20:30.273Z,20.37
2018-07-09T22:22:57.665Z,20.32
2018-07-09T22:25:25.091Z,20.24
2018-07-09T22:27:52.677Z,20.22
2018-07-09T22:30:27.614Z,20.17
2018-07-09T22:32:56.978Z,20.14
2018-07-09T22:35:26.081Z,20.16
2018-07-09T22:37:55.847Z,20.19
2018-07-09T22:40:25.445Z,20.22
2018-07-09T22:42:54.755Z,20.22
2018-07-09T22:45:23.851Z,20.28
2018-07-09T22:47:53.006Z,20.29
2018-07-09T22:50:21.929Z,20.36
2018-07-09T22:52:51.486Z,20.42
2018-07-09T22:55:31.349Z,20.49
2018-07-09T22:58:00.487Z,20.47
2018-07-09T23:00:29.418Z,20.50
2018-07-09T23:03:13.431Z,20.58
2018-07-09T23:05:42.277Z,20.65
2018-07-09T23:08:11.874Z,20.68
2018-07-09T23:11:52.094Z,20.77
2018-07-09T23:15:58.536Z,20.71
2018-07-09T23:18:38.246Z,20.66
2018-07-09T23:21:18.924Z,20.58
2018-07-09T23:23:46.552Z,20.49
2018-07-09T23:26:13.943Z,20.34
2018-07-09T23:28:41.425Z,20.34
2018-07-09T23:31:08.910Z,20.20
2018-07-09T23:33:36.379Z,20.20
2018-07-09T23:36:03.711Z,20.08
2018-07-09T23:38:31.092Z,20.02
2018-07-09T23:40:58.508Z,19.98
2018-07-09T23:43:25.953Z,19.93
2018-07-09T23:45:53.540Z,19.91
2018-07-09T23:48:20.874Z,19.85
2018-07-09T23:50:48.949Z,19.85
2018-07-09T23:53:16.538Z,19.82
2018-07-09T23:55:46.545Z,19.88
